Time;durP1;ratioP1;P1;durP2;ratioP2;P2;SDS_P1;SDS_P2;PMS_P1;PMS_P2;Temp;Humidity;BMP_temperature;BMP_pressure;BME280_temperature;BME280_humidity;BME280_pressure;Samples;Min_cycle;Max_cycle;Signal;HPM_P1;HPM_P2
2023/10/13 00:01:24;;;;;;;13.82;12.27;;;;;;;24.87;57.77;101571.91;4985974;28;20058;-61
2023/10/13 00:03:53;;;;;;;15.10;12.88;;;;;;;24.85;57.79;101566.66;4987286;28;20053;-60
2023/10/13 00:06:20;;;;;;;13.88;12.27;;;;;;;24.86;57.62;101564.78;4983382;28;20510;-61
2023/10/13 00:08:48;;;;;;;13.35;11.23;;;;;;;24.85;57.59;101569.34;4983225;28;20054;-56
2023/10/13 00:11:18;;;;;;;13.73;12.02;;;;;;;24.85;57.89;101571.22;4985696;28;20050;-60
2023/10/13 00:13:52;;;;;;;13.50;12.13;;;;;;;24.85;57.75;101571.22;4986732;28;20050;-61
2023/10/13 00:16:22;;;;;;;15.27;13.68;;;;;;;24.84;57.75;101564.97;4982998;28;20050;-61
2023/10/13 00:18:54;;;;;;;13.93;11.52;;;;;;;24.85;57.53;101565.81;4983005;28;20043;-59
2023/10/13 00:21:31;;;;;;;13.55;12.15;;;;;;;24.84;57.42;101561.41;4986577;28;20058;-61
2023/10/13 00:24:06;;;;;;;15.30;13.70;;;;;;;24.83;57.52;101565.97;4983834;28;20513;-60
2023/10/13 00:26:36;;;;;;;14.02;12.55;;;;;;;24.82;57.49;101566.94;4983464;28;20477;-61
2023/10/13 00:31:42;;;;;;;13.48;12.07;;;;;;;24.82;57.37;101568.81;4985772;28;20050;-61
2023/10/13 00:34:32;;;;;;;13.30;11.60;;;;;;;24.82;57.31;101563.38;4982763;28;20074;-60
2023/10/13 00:37:18;;;;;;;13.40;12.00;;;;;;;24.80;57.35;101558.13;4984486;28;20042;-61
2023/10/13 00:39:46;;;;;;;14.07;12.10;;;;;;;24.81;57.35;101564.41;4997936;28;20517;-54
2023/10/13 00:42:24;;;;;;;14.35;12.63;;;;;;;24.80;57.65;101566.25;4985251;28;20063;-53
2023/10/13 00:44:54;;;;;;;15.00;12.48;;;;;;;24.80;57.39;101558.13;4984449;28;20057;-54
2023/10/13 00:47:48;;;;;;;14.60;12.48;;;;;;;24.81;57.54;101556.28;4984964;28;20042;-54
2023/10/13 00:50:14;;;;;;;14.30;11.55;;;;;;;24.79;57.59;101548.28;4986397;28;20055;-54
2023/10/13 00:52:46;;;;;;;12.45;11.15;;;;;;;24.80;57.40;101550.00;4986266;28;20050;-55
2023/10/13 00:55:17;;;;;;;13.23;11.93;;;;;;;24.80;57.17;101557.28;4984977;28;20051;-55
2023/10/13 00:57:46;;;;;;;14.63;12.77;;;;;;;24.80;57.22;101554.59;4982384;28;20046;-55
2023/10/13 01:00:24;;;;;;;15.45;13.23;;;;;;;24.79;57.35;101559.13;4983064;28;20082;-54
2023/10/13 01:03:05;;;;;;;13.52;12.05;;;;;;;24.79;57.20;101547.44;4981870;28;20053;-54
2023/10/13 01:05:33;;;;;;;14.48;12.73;;;;;;;24.79;57.36;101555.56;4982482;28;20061;-54
2023/10/13 01:08:01;;;;;;;14.18;12.57;;;;;;;24.79;57.15;101563.69;4982661;28;20050;-61
2023/10/13 01:10:32;;;;;;;13.93;12.52;;;;;;;24.79;57.50;101574.50;4985947;28;20469;-55
2023/10/13 01:13:02;;;;;;;14.30;12.18;;;;;;;24.78;57.40;101576.38;4983851;28;20523;-54
2023/10/13 01:15:32;;;;;;;14.07;12.18;;;;;;;24.78;57.27;101573.66;4989535;28;20065;-54
2023/10/13 01:18:14;;;;;;;13.63;12.05;;;;;;;24.78;57.28;101562.84;4993094;28;20050;-54
2023/10/13 01:20:52;;;;;;;13.93;12.55;;;;;;;24.78;57.33;101562.84;4982019;28;20054;-54
2023/10/13 01:23:20;;;;;;;16.58;12.63;;;;;;;24.77;57.42;101563.84;4980918;28;20505;-53
2023/10/13 01:25:51;;;;;;;13.65;12.18;;;;;;;24.78;57.26;101564.69;4983355;28;20054;-55
2023/10/13 01:28:18;;;;;;;14.50;12.68;;;;;;;24.77;57.08;101566.56;4985268;28;20049;-55
2023/10/13 01:30:52;;;;;;;14.98;12.30;;;;;;;24.78;57.03;101567.41;4983234;28;20493;-61
2023/10/13 01:33:27;;;;;;;14.63;12.43;;;;;;;24.77;56.99;101565.69;4990064;28;20050;-61
2023/10/13 01:35:58;;;;;;;13.50;12.13;;;;;;;24.77;57.03;101565.69;4982917;28;20053;-61
2023/10/13 01:38:27;;;;;;;15.13;13.25;;;;;;;24.77;56.88;101566.56;4984909;28;20061;-61
2023/10/13 01:40:56;;;;;;;13.63;11.55;;;;;;;24.76;56.98;101564.00;4981507;28;20049;-55
2023/10/13 01:43:27;;;;;;;13.77;12.38;;;;;;;24.77;56.94;101571.13;4986302;28;20516;-56
2023/10/13 01:45:55;;;;;;;14.32;11.98;;;;;;;24.76;56.81;101570.28;4984962;28;20046;-55
2023/10/13 01:48:22;;;;;;;13.23;11.80;;;;;;;24.77;57.02;101571.13;4991210;28;20047;-54
2023/10/13 01:50:55;;;;;;;13.48;12.13;;;;;;;24.76;57.16;101564.84;4989804;28;20050;-61
2023/10/13 01:53:23;;;;;;;12.93;11.57;;;;;;;24.76;57.25;101562.16;5011762;28;20406;-61
2023/10/13 01:55:51;;;;;;;13.90;11.35;;;;;;;24.77;57.14;101558.44;4985048;28;20504;-61
2023/10/13 01:58:22;;;;;;;13.32;11.90;;;;;;;24.76;57.18;101564.84;4989520;28;20058;-61
2023/10/13 02:00:51;;;;;;;14.43;12.25;;;;;;;24.76;57.01;101569.41;4980468;28;20057;-56
2023/10/13 02:03:18;;;;;;;14.05;12.65;;;;;;;24.76;57.13;101564.84;4989913;28;20606;-55
2023/10/13 02:05:48;;;;;;;13.73;12.13;;;;;;;24.76;56.77;101553.19;4984494;28;20062;-55
2023/10/13 02:08:24;;;;;;;14.10;12.55;;;;;;;24.75;56.94;101557.72;4989847;28;20054;-55
2023/10/13 02:10:56;;;;;;;12.80;11.50;;;;;;;24.75;57.09;101562.28;4985579;28;20062;-55
2023/10/13 02:13:25;;;;;;;15.90;12.70;;;;;;;24.74;56.96;101560.56;4984530;28;20061;-55
2023/10/13 02:15:57;;;;;;;11.88;10.77;;;;;;;24.74;56.98;101561.44;4981619;28;20485;-55
2023/10/13 02:18:33;;;;;;;14.07;12.13;;;;;;;24.73;56.73;101569.72;4987846;28;20039;-55
2023/10/13 02:21:12;;;;;;;12.05;10.82;;;;;;;24.73;56.94;101564.28;4982147;28;20050;-56
2023/10/13 02:23:59;;;;;;;13.45;12.15;;;;;;;24.73;56.91;101565.16;4989050;28;20054;-54
2023/10/13 02:26:30;;;;;;;12.40;11.20;;;;;;;24.74;56.92;101566.84;4979793;28;20481;-55
2023/10/13 02:29:07;;;;;;;13.27;11.35;;;;;;;24.74;56.75;101571.41;4994361;28;20054;-60
2023/10/13 02:31:37;;;;;;;12.57;11.38;;;;;;;24.72;56.88;101568.88;4987560;28;20485;-61
2023/10/13 02:34:08;;;;;;;13.15;11.85;;;;;;;24.73;56.83;101567.00;4984930;28;20397;-61
2023/10/13 02:36:36;;;;;;;13.25;11.73;;;;;;;24.73;56.75;101567.00;4984924;28;20111;-61
2023/10/13 02:39:08;;;;;;;12.90;11.35;;;;;;;24.72;56.80;101562.59;4988385;28;20050;-61
2023/10/13 02:41:38;;;;;;;12.88;11.55;;;;;;;24.72;56.74;101568.88;4986108;28;20050;-61
2023/10/13 02:44:07;;;;;;;13.80;12.40;;;;;;;24.72;56.80;101568.03;4987532;28;20066;-61
2023/10/13 02:46:39;;;;;;;12.65;11.07;;;;;;;24.71;56.59;101560.88;4987006;28;20051;-61
2023/10/13 02:49:10;;;;;;;;;;;;;;;24.71;56.65;101561.72;4994455;28;20042;-60
2023/10/13 02:51:40;;;;;;;12.57;10.95;;;;;;;24.70;56.53;101557.31;4985154;28;19922;-61
2023/10/13 02:54:18;;;;;;;13.98;12.23;;;;;;;24.71;56.70;101555.47;4988874;28;20055;-61
2023/10/13 02:56:59;;;;;;;13.57;11.57;;;;;;;24.71;56.44;101555.47;4988392;28;20046;-61
2023/10/13 02:59:40;;;;;;;13.48;11.38;;;;;;;24.70;56.57;101561.88;4984563;28;20050;-54
2023/10/13 03:02:27;;;;;;;12.98;11.57;;;;;;;24.69;56.40;101550.19;4989737;28;20051;-55
2023/10/13 03:04:59;;;;;;;13.80;12.30;;;;;;;24.69;56.41;101555.63;4984502;28;20054;-54
2023/10/13 03:07:28;;;;;;;11.95;10.75;;;;;;;24.68;56.81;101551.22;4984333;28;20050;-54
2023/10/13 03:10:00;;;;;;;13.20;11.77;;;;;;;24.69;56.70;101554.78;4984716;28;20406;-53
2023/10/13 03:12:33;;;;;;;13.25;11.82;;;;;;;24.68;56.69;101545.78;4988026;28;20057;-53
2023/10/13 03:17:43;;;;;;;13.30;11.73;;;;;;;24.69;56.90;101554.78;5018401;28;20073;-60
2023/10/13 03:20:24;;;;;;;13.85;11.88;;;;;;;24.70;56.67;101553.75;4987394;28;20484;-60
2023/10/13 03:22:53;;;;;;;12.77;11.43;;;;;;;24.67;56.37;101555.78;4993478;28;20061;-61
2023/10/13 03:25:24;;;;;;;12.52;11.23;;;;;;;24.67;56.45;101554.91;4989248;28;20398;-61
2023/10/13 03:30:21;;;;;;;13.23;11.82;;;;;;;24.68;56.38;101559.34;4991066;28;20069;-61
2023/10/13 03:32:54;;;;;;;12.98;11.40;;;;;;;24.67;56.69;101553.06;4983216;28;20047;-61
2023/10/13 03:35:24;;;;;;;14.82;12.20;;;;;;;24.66;56.69;101559.47;4982687;28;20521;-61
2023/10/13 03:37:52;;;;;;;12.40;11.10;;;;;;;24.67;56.49;101563.03;4985499;28;20045;-61
2023/10/13 03:43:04;;;;;;;13.77;11.73;;;;;;;24.66;56.59;101561.31;4982617;28;20043;-53
2023/10/13 03:45:40;;;;;;;13.07;11.77;;;;;;;24.65;56.52;101552.34;4984320;28;20058;-54
2023/10/13 03:53:33;;;;;;;12.95;11.40;;;;;;;24.65;56.42;101549.66;4984847;28;20477;-60
2023/10/13 03:56:08;;;;;;;13.65;12.18;;;;;;;24.66;56.46;101553.19;4986180;28;20046;-60
2023/10/13 03:58:38;;;;;;;12.05;10.85;;;;;;;24.64;56.48;101550.66;4982636;28;20101;-60
2023/10/13 04:01:06;;;;;;;11.75;10.07;;;;;;;24.64;56.51;101552.50;4982719;28;20501;-60
2023/10/13 04:03:35;;;;;;;12.02;10.73;;;;;;;24.65;56.54;101556.91;4985939;28;20054;-60
2023/10/13 04:06:06;;;;;;;12.48;11.18;;;;;;;24.64;56.52;101549.81;4983888;28;20050;-60
2023/10/13 04:16:54;;;;;;;12.32;11.05;;;;;;;24.63;56.06;101551.66;4982242;28;20051;-60
2023/10/13 04:19:25;;;;;;;13.10;11.57;;;;;;;24.64;56.31;101552.50;4985078;28;20069;-54
2023/10/13 04:21:59;;;;;;;12.93;10.63;;;;;;;24.63;56.13;101542.66;4943603;28;1172571;-53
2023/10/13 04:28:15;;;;;;;11.35;9.88;;;;;;;24.63;56.27;101543.53;5013030;28;20061;-60
2023/10/13 04:30:27;;;;;;;11.05;9.95;;;;;;;24.63;56.33;101537.25;5013330;28;20096;-54
2023/10/13 04:33:17;;;;;;;11.35;10.13;;;;;;;24.61;56.14;101536.56;5013007;28;20061;-54
2023/10/13 04:35:47;;;;;;;12.13;10.20;;;;;;;24.62;56.02;101541.81;5012882;28;20053;-53
2023/10/13 04:38:20;;;;;;;11.50;10.32;;;;;;;24.62;56.16;101549.94;5012926;28;20057;-54
2023/10/13 04:41:19;;;;;;;12.15;10.85;;;;;;;24.61;56.14;101547.38;5012599;28;20185;-60
2023/10/13 04:43:55;;;;;;;12.45;10.60;;;;;;;24.62;56.41;101544.53;5028330;28;20057;-60
2023/10/13 04:46:35;;;;;;;12.27;10.85;;;;;;;24.62;56.20;101551.78;5012215;28;20421;-60
2023/10/13 04:49:09;;;;;;;11.18;10.02;;;;;;;24.60;56.34;101546.53;5008407;28;20505;-60
2023/10/13 04:51:49;;;;;;;10.77;9.27;;;;;;;24.60;56.08;101546.53;5011725;28;20084;-60
2023/10/13 04:54:26;;;;;;;13.43;10.65;;;;;;;24.60;55.99;101546.53;5012329;28;20051;-60
2023/10/13 04:57:20;;;;;;;11.60;10.40;;;;;;;24.60;56.31;101549.25;5008185;28;20049;-60
2023/10/13 05:00:52;;;;;;;12.93;10.48;;;;;;;24.60;56.06;101554.66;4982514;28;20047;-60
2023/10/13 05:05:21;;;;;;;11.18;10.18;;;;;;;24.59;55.91;101547.56;4983774;28;20069;-59
2023/10/13 06:30:07;;;;;;;20.63;17.38;;;;;;;24.07;53.83;101630.97;4981199;28;20043;-59
2023/10/13 06:32:39;;;;;;;25.20;18.52;;;;;;;24.02;53.65;101630.53;4981876;28;20053;-59
2023/10/13 06:35:08;;;;;;;22.15;19.20;;;;;;;23.98;54.17;101629.09;4984437;28;20057;-59
2023/10/13 06:37:41;;;;;;;22.73;20.30;;;;;;;23.92;54.19;101630.53;4981609;28;20431;-59
2023/10/13 06:40:26;;;;;;;24.40;19.08;;;;;;;23.92;54.26;101635.94;4980960;28;20050;-60
2023/10/13 06:43:12;;;;;;;20.75;17.73;;;;;;;23.91;54.38;101633.41;4983302;28;20043;-60
2023/10/13 06:45:43;;;;;;;21.83;18.48;;;;;;;23.92;54.47;101638.66;4983889;28;20057;-61
2023/10/13 06:48:12;;;;;;;27.20;21.60;;;;;;;23.93;54.32;101642.22;4985109;28;20070;-60
2023/10/13 06:50:41;;;;;;;25.63;19.38;;;;;;;23.95;53.95;101644.78;4983160;28;20042;-59
2023/10/13 06:53:12;;;;;;;25.13;20.45;;;;;;;23.96;53.96;101643.78;4980629;28;20062;-59
2023/10/13 06:55:40;;;;;;;23.70;20.48;;;;;;;23.97;53.94;101649.03;4980707;28;20055;-59
2023/10/13 06:58:09;;;;;;;28.08;21.65;;;;;;;23.97;53.73;101654.44;4981446;28;20394;-59
2023/10/13 07:00:38;;;;;;;27.42;22.70;;;;;;;23.98;53.97;101650.75;4984113;28;20054;-59
2023/10/13 07:03:05;;;;;;;27.75;22.00;;;;;;;24.00;53.64;101656.88;4982208;28;20043;-59
2023/10/13 07:05:37;;;;;;;28.27;23.70;;;;;;;24.01;53.72;101660.44;4980845;28;20054;-59
2023/10/13 07:08:06;;;;;;;25.45;22.63;;;;;;;24.02;53.66;101665.69;4981642;28;20106;-59
2023/10/13 07:10:47;;;;;;;27.63;23.13;;;;;;;24.04;54.02;101670.97;4983989;28;20042;-60
2023/10/13 07:13:16;;;;;;;29.98;24.05;;;;;;;24.04;54.17;101676.38;4980489;28;20054;-60
2023/10/13 07:15:47;;;;;;;29.67;23.95;;;;;;;24.05;54.35;101670.81;4983973;28;20051;-60
2023/10/13 07:18:19;;;;;;;28.60;22.65;;;;;;;24.06;54.10;101677.94;4987289;28;20050;-60
2023/10/13 07:20:46;;;;;;;30.95;23.52;;;;;;;24.07;54.07;101676.97;4985250;28;20054;-60
2023/10/13 07:23:32;;;;;;;33.53;24.10;;;;;;;24.08;54.36;101681.38;4983448;28;20062;-60
2023/10/13 07:26:02;;;;;;;28.80;23.88;;;;;;;24.09;54.07;101683.06;4986681;28;20050;-60
2023/10/13 07:28:31;;;;;;;30.70;24.83;;;;;;;24.10;54.38;101681.22;4986783;28;20358;-60
2023/10/13 07:33:31;;;;;;;27.65;23.63;;;;;;;24.12;54.35;101680.09;4986631;28;20409;-59
2023/10/13 07:36:27;;;;;;;27.92;22.17;;;;;;;24.12;54.52;101693.59;4987093;28;20058;-59
2023/10/13 07:39:20;;;;;;;28.17;22.70;;;;;;;24.13;54.39;101687.19;4990699;28;20054;-60
2023/10/13 07:42:03;;;;;;;30.35;22.95;;;;;;;24.13;54.38;101692.59;4986663;28;20401;-59
2023/10/13 07:44:33;;;;;;;29.00;22.85;;;;;;;24.14;54.63;101701.56;4983813;28;20050;-59
2023/10/13 07:47:03;;;;;;;28.25;22.88;;;;;;;24.14;54.35;101697.00;4983175;28;20386;-59
2023/10/13 07:49:39;;;;;;;24.27;21.63;;;;;;;24.15;54.69;101701.44;4986230;28;20054;-59
2023/10/13 07:54:49;;;;;;;26.17;21.60;;;;;;;24.16;54.88;101695.03;4982648;28;20402;-60
2023/10/13 07:57:17;;;;;;;23.70;19.27;;;;;;;24.20;54.94;101697.47;4986662;28;20378;-60
2023/10/13 07:59:50;;;;;;;22.85;19.42;;;;;;;24.22;54.95;101696.31;4986595;28;20042;-59
2023/10/13 08:02:48;;;;;;;24.75;19.65;;;;;;;24.23;54.91;101703.44;4992245;28;20051;-59
2023/10/13 08:06:04;;;;;;;26.20;20.15;;;;;;;24.25;54.66;101706.00;4986054;28;20070;-60
2023/10/13 08:08:14;;;;;;;22.63;18.42;;;;;;;24.26;55.07;101705.00;4986433;28;20066;-60
2023/10/13 08:10:45;;;;;;;22.17;17.50;;;;;;;24.27;54.74;101699.44;4982950;28;20058;-59
2023/10/13 08:13:13;;;;;;;21.80;17.35;;;;;;;24.29;54.95;101708.25;4985989;28;20053;-59
2023/10/13 08:15:47;;;;;;;26.23;18.35;;;;;;;24.28;54.76;101709.28;4985742;28;20061;-59
2023/10/13 08:18:24;;;;;;;20.92;16.23;;;;;;;24.28;54.65;101711.97;4982695;28;20050;-60
2023/10/13 08:20:53;;;;;;;17.65;15.43;;;;;;;24.28;54.74;101705.72;4984065;28;20074;-60
2023/10/13 08:23:38;;;;;;;17.23;14.68;;;;;;;24.29;54.80;101697.44;4986098;28;20061;-60
2023/10/13 08:29:31;;;;;;;17.27;13.70;;;;;;;24.30;54.34;101699.13;4985485;28;20046;-60
2023/10/13 08:43:11;;;;;;;15.07;12.30;;;;;;;24.33;54.62;101709.69;4984708;28;20390;-59
2023/10/13 08:50:52;;;;;;;11.52;10.32;;;;;;;24.38;54.74;101706.56;4985876;28;20508;-59
2023/10/13 08:53:31;;;;;;;13.02;11.40;;;;;;;24.40;54.92;101710.00;4982724;28;20046;-60
2023/10/13 08:56:18;;;;;;;11.65;10.45;;;;;;;24.41;54.51;101706.28;4982357;28;20051;-60
2023/10/13 09:01:35;;;;;;;11.90;10.65;;;;;;;24.41;54.53;101701.72;4982043;28;20055;-60
2023/10/13 09:04:21;;;;;;;14.70;10.57;;;;;;;24.42;54.81;101706.13;4983233;28;20057;-59
2023/10/13 09:09:36;;;;;;;11.40;9.95;;;;;;;24.45;54.90;101702.31;4987130;28;20054;-60
2023/10/13 09:12:20;;;;;;;12.95;9.50;;;;;;;24.47;54.59;101703.03;4993275;28;20054;-60
2023/10/13 09:14:58;;;;;;;12.82;9.57;;;;;;;24.48;54.91;101706.59;4983884;28;20050;-59
2023/10/13 09:17:35;;;;;;;13.05;10.30;;;;;;;24.48;54.93;101707.44;4981243;28;20042;-60
2023/10/13 09:25:37;;;;;;;10.02;8.65;;;;;;;24.51;54.68;101709.88;4981880;28;20050;-59
2023/10/13 09:28:17;;;;;;;10.13;8.80;;;;;;;24.51;55.00;101701.75;4985019;28;20046;-59
2023/10/13 09:30:52;;;;;;;11.85;8.77;;;;;;;24.51;54.92;101698.16;4985354;28;20384;-60
2023/10/13 09:33:29;;;;;;;11.73;9.52;;;;;;;24.51;54.87;101693.63;4981189;28;20057;-60
2023/10/13 09:35:59;;;;;;;10.70;8.98;;;;;;;24.52;54.86;101689.91;4983595;28;20493;-60
2023/10/13 09:38:34;;;;;;;9.98;8.98;;;;;;;24.52;54.59;101687.19;4982882;28;20061;-60
2023/10/13 09:41:20;;;;;;;9.85;7.93;;;;;;;24.53;54.70;101697.03;4983070;28;20505;-60
2023/10/13 09:43:51;;;;;;;10.50;8.82;;;;;;;24.53;54.89;101694.31;4983490;28;20047;-60
2023/10/13 09:46:23;;;;;;;9.88;8.73;;;;;;;24.53;55.01;101688.91;4991327;28;20050;-60
2023/10/13 09:49:07;;;;;;;12.07;8.75;;;;;;;24.53;54.97;101691.59;4981102;28;20050;-60
2023/10/13 09:51:35;;;;;;;9.48;8.13;;;;;;;24.55;54.82;101688.75;4992487;28;20034;-60
2023/10/13 09:54:06;;;;;;;11.68;8.27;;;;;;;24.55;54.94;101692.31;4983773;28;20051;-60
2023/10/13 09:57:01;;;;;;;8.90;7.65;;;;;;;24.56;55.01;101690.47;4981173;28;20077;-60
2023/10/13 09:59:37;;;;;;;9.15;7.80;;;;;;;24.57;54.82;101692.16;4999330;28;20050;-60
2023/10/13 10:02:08;;;;;;;9.05;7.75;;;;;;;24.57;54.96;101694.88;4983967;28;20050;-59
2023/10/13 10:04:51;;;;;;;9.65;8.25;;;;;;;24.56;54.95;101691.31;4983795;28;20053;-60
2023/10/13 10:07:28;;;;;;;10.35;8.23;;;;;;;24.57;55.21;101689.47;4984253;28;20046;-59
2023/10/13 10:10:01;;;;;;;9.32;7.50;;;;;;;24.57;55.04;101692.16;4982593;28;20046;-60
2023/10/13 10:12:35;;;;;;;10.60;7.80;;;;;;;24.57;54.86;101695.72;4980901;28;20474;-59
2023/10/13 10:15:20;;;;;;;9.88;7.80;;;;;;;24.57;54.97;101690.31;4986588;28;20050;-59
2023/10/13 10:17:49;;;;;;;9.80;8.48;;;;;;;24.57;54.82;101684.91;4982616;28;20054;-59
2023/10/13 10:20:39;;;;;;;8.32;7.10;;;;;;;24.58;54.79;101689.31;4980858;28;20058;-60
2023/10/13 10:23:21;;;;;;;10.18;7.75;;;;;;;24.59;54.91;101685.63;4983148;28;20050;-60
2023/10/13 10:25:51;;;;;;;9.27;8.27;;;;;;;24.58;54.82;101683.88;4982433;28;20076;-60
2023/10/13 10:28:19;;;;;;;7.93;6.93;;;;;;;24.59;54.93;101679.31;4980931;28;20050;-60
2023/10/13 10:30:47;;;;;;;11.60;8.05;;;;;;;24.59;54.70;101671.19;4991447;28;20049;-60
2023/10/13 10:33:21;;;;;;;10.15;7.07;;;;;;;24.59;54.77;101677.50;4984478;28;20054;-60
2023/10/13 10:35:59;;;;;;;8.85;7.00;;;;;;;24.58;54.85;101667.66;4988300;28;20051;-60
2023/10/13 10:41:03;;;;;;;9.57;8.15;;;;;;;24.60;54.70;101667.53;4990469;28;20057;-60
2023/10/13 10:43:43;;;;;;;9.20;8.10;;;;;;;24.59;54.78;101661.25;4981257;28;20047;-60
2023/10/13 10:46:18;;;;;;;9.77;7.90;;;;;;;24.59;54.55;101657.66;4980964;28;20054;-60
2023/10/13 10:48:45;;;;;;;11.57;7.38;;;;;;;24.59;54.93;101655.84;4984492;28;20054;-60
2023/10/13 10:51:18;;;;;;;10.25;8.15;;;;;;;24.60;54.52;101657.53;4990169;28;20359;-60
2023/10/13 10:53:45;;;;;;;9.43;8.07;;;;;;;24.59;54.61;101647.72;4984113;28;20054;-60
2023/10/13 10:56:22;;;;;;;10.35;8.63;;;;;;;24.60;54.55;101651.28;4986211;28;20065;-60
2023/10/13 10:58:57;;;;;;;12.02;9.32;;;;;;;24.60;54.71;101645.88;4993452;28;20050;-60
2023/10/13 11:01:46;;;;;;;10.95;8.88;;;;;;;24.59;54.42;101639.59;4986920;28;20046;-60
2023/10/13 11:04:18;;;;;;;13.80;11.18;;;;;;;24.57;54.22;101640.72;4986790;28;20050;-60
2023/10/13 11:06:54;;;;;;;13.45;10.82;;;;;;;24.56;54.14;101628.22;4987025;28;20046;-60
2023/10/13 11:09:36;;;;;;;15.68;11.93;;;;;;;24.53;54.24;101625.78;4984053;28;20051;-60
2023/10/13 11:12:04;;;;;;;16.77;11.98;;;;;;;24.52;54.18;101627.66;4986492;28;20058;-59
2023/10/13 11:14:31;;;;;;;13.40;11.90;;;;;;;24.51;53.96;101625.06;4987625;28;20074;-59
2023/10/13 11:17:13;;;;;;;13.57;11.20;;;;;;;24.51;54.01;101616.94;4984341;28;20061;-59
2023/10/13 11:19:42;;;;;;;14.00;12.07;;;;;;;24.50;53.81;101617.94;4984282;28;20047;-60
2023/10/13 11:25:14;;;;;;;14.68;10.90;;;;;;;24.49;54.17;101614.41;4991514;28;20057;-55
2023/10/13 11:30:14;;;;;;;13.32;11.20;;;;;;;24.49;54.35;101606.28;4992258;28;20042;-59
2023/10/13 11:32:42;;;;;;;17.52;12.07;;;;;;;24.50;54.74;101597.16;4984070;28;20050;-59
2023/10/13 11:35:28;;;;;;;14.60;12.27;;;;;;;24.50;55.08;101590.88;4983642;28;20050;-59
2023/10/13 11:38:15;;;;;;;16.70;10.65;;;;;;;24.53;54.72;101590.59;4994359;28;20492;-60
2023/10/13 11:43:31;;;;;;;13.27;10.98;;;;;;;24.56;56.88;101579.47;4986820;28;20042;-56
2023/10/13 11:48:44;;;;;;;13.27;11.00;;;;;;;24.55;58.37;101575.91;4993306;28;20046;-54
2023/10/13 11:51:17;;;;;;;13.73;11.57;;;;;;;24.55;58.73;101573.22;4984833;28;20497;-60
2023/10/13 11:53:45;;;;;;;13.90;11.10;;;;;;;24.54;58.89;101563.38;4992465;28;20061;-61
2023/10/13 11:56:12;;;;;;;13.27;11.73;;;;;;;24.52;58.65;101562.69;4989273;28;20490;-60
2023/10/13 11:58:40;;;;;;;13.60;10.80;;;;;;;24.51;59.33;101555.56;4980854;28;20054;-61
2023/10/13 12:11:54;;;;;;;14.15;10.98;;;;;;;24.44;57.37;101545.47;4985281;28;20047;-57
2023/10/13 12:14:27;;;;;;;12.38;10.18;;;;;;;24.42;57.46;101546.44;4986682;28;20059;-58
2023/10/13 12:16:55;;;;;;;12.63;10.95;;;;;;;24.41;57.70;101538.50;4988311;28;20038;-58
2023/10/13 12:19:24;;;;;;;11.38;10.18;;;;;;;24.41;58.53;101538.50;4992290;28;20043;-55
2023/10/13 12:21:55;;;;;;;13.75;11.32;;;;;;;24.40;58.75;101532.22;4981039;28;20074;-55
2023/10/13 12:27:26;;;;;;;11.80;10.32;;;;;;;24.43;58.66;101528.38;5001945;28;20498;-57
2023/10/13 12:29:56;;;;;;;13.38;10.27;;;;;;;24.42;57.35;101524.81;4981815;28;20043;-59
2023/10/13 12:32:25;;;;;;;12.50;10.02;;;;;;;24.43;57.58;101522.97;4981307;28;20049;-59
2023/10/13 12:54:05;;;;;;;12.63;9.70;;;;;;;24.47;54.65;101500.03;4980767;28;20497;-63
2023/10/13 12:56:34;;;;;;;12.52;10.02;;;;;;;24.46;53.93;101502.84;4983772;28;20393;-59
2023/10/13 12:59:08;;;;;;;12.38;10.02;;;;;;;24.45;55.72;101491.19;4980517;28;20473;-53
2023/10/13 13:01:41;;;;;;;10.80;9.38;;;;;;;24.43;56.24;101498.63;4979665;28;20051;-53
2023/10/13 13:04:34;;;;;;;11.13;9.50;;;;;;;24.42;57.20;101491.47;5003772;28;20042;-54
2023/10/13 13:07:00;;;;;;;10.63;9.52;;;;;;;24.40;57.53;101491.63;5011286;28;20385;-54
2023/10/13 13:09:28;;;;;;;11.25;8.80;;;;;;;24.41;57.92;101489.78;5007037;28;20424;-61
2023/10/13 13:11:58;;;;;;;12.00;9.05;;;;;;;24.39;58.39;101491.78;5004279;28;20050;-61
2023/10/13 13:14:29;;;;;;;10.00;8.98;;;;;;;24.37;58.80;101491.03;5001274;28;20054;-61
2023/10/13 13:17:04;;;;;;;10.02;8.25;;;;;;;24.35;58.90;101488.50;4995878;28;20050;-62
2023/10/13 13:19:38;;;;;;;12.55;8.85;;;;;;;24.36;59.05;101481.22;5003984;28;20065;-62
2023/10/13 13:22:13;;;;;;;11.98;9.13;;;;;;;24.34;59.00;101480.50;4998627;28;20058;-62
2023/10/13 13:24:45;;;;;;;10.15;9.07;;;;;;;24.34;59.25;101477.81;4998925;28;20405;-62
2023/10/13 13:27:14;;;;;;;11.20;9.77;;;;;;;24.34;59.66;101469.69;5001837;28;20065;-62
2023/10/13 13:29:42;;;;;;;11.50;9.02;;;;;;;24.34;59.78;101469.69;4999050;28;20412;-55
2023/10/13 13:32:24;;;;;;;11.35;9.77;;;;;;;24.33;59.96;101466.13;4995893;28;20057;-54
2023/10/13 13:35:05;;;;;;;12.13;9.23;;;;;;;24.33;60.24;101458.00;4998896;28;20045;-54
2023/10/13 13:37:32;;;;;;;9.68;8.75;;;;;;;24.32;60.08;101456.31;4996781;28;20493;-53
2023/10/13 13:40:17;;;;;;;9.85;8.50;;;;;;;24.32;60.52;101464.44;4990924;28;20046;-61
2023/10/13 13:42:45;;;;;;;10.07;8.88;;;;;;;24.32;60.29;101458.19;4995111;28;20074;-61
2023/10/13 13:45:41;;;;;;;10.68;8.75;;;;;;;24.33;60.52;101468.00;4995912;28;20042;-61
2023/10/13 13:48:07;;;;;;;9.30;8.40;;;;;;;24.32;60.74;101460.88;4990926;28;20046;-61
2023/10/13 13:50:41;;;;;;;10.18;8.63;;;;;;;24.33;60.86;101459.88;4994639;28;20046;-55
2023/10/13 13:53:11;;;;;;;10.23;8.63;;;;;;;24.32;61.05;101463.59;4993610;28;20042;-55
2023/10/13 13:55:39;;;;;;;9.65;7.50;;;;;;;24.32;60.76;101459.03;4989395;28;20061;-55
2023/10/13 13:58:12;;;;;;;10.10;8.77;;;;;;;24.32;61.18;101455.47;4985879;28;20058;-54
2023/10/13 14:00:48;;;;;;;10.02;9.02;;;;;;;24.31;61.00;101443.81;4988523;28;20525;-61
2023/10/13 14:03:31;;;;;;;10.30;8.25;;;;;;;24.32;60.95;101444.66;4987942;28;20046;-61
2023/10/13 14:06:00;;;;;;;11.02;8.30;;;;;;;24.33;61.23;101446.34;4990952;28;20050;-61
2023/10/13 14:08:27;;;;;;;10.82;8.30;;;;;;;24.32;61.47;101448.19;4983002;28;20051;-61
2023/10/13 14:13:49;;;;;;;10.70;7.78;;;;;;;24.31;61.54;101451.91;4990619;28;20050;-61
2023/10/13 14:16:17;;;;;;;9.15;7.32;;;;;;;24.31;60.89;101438.38;4980966;28;20047;-62
2023/10/13 14:18:48;;;;;;;9.13;8.07;;;;;;;24.33;60.91;101443.63;4983916;28;20478;-57
2023/10/13 14:21:16;;;;;;;9.98;8.88;;;;;;;24.32;61.57;101433.81;4982101;28;20388;-54
2023/10/13 14:23:48;;;;;;;9.27;8.27;;;;;;;24.32;61.74;101428.41;4981677;28;20421;-54
2023/10/13 14:26:25;;;;;;;9.70;8.70;;;;;;;24.31;61.64;101434.84;4981607;28;20069;-54
2023/10/13 14:29:03;;;;;;;12.02;8.15;;;;;;;24.31;61.45;101422.16;4989346;28;20038;-53
2023/10/13 14:31:31;;;;;;;9.35;8.30;;;;;;;24.33;61.24;101422.00;4994270;28;20050;-54
2023/10/13 14:33:59;;;;;;;9.57;8.32;;;;;;;24.32;61.28;101420.28;4983649;28;20038;-53
2023/10/13 14:36:29;;;;;;;9.25;8.32;;;;;;;24.33;61.40;101419.28;4984415;28;20046;-54
2023/10/13 14:38:56;;;;;;;10.70;8.05;;;;;;;24.33;61.49;101416.56;4985802;28;20485;-61
2023/10/13 14:41:24;;;;;;;9.32;7.93;;;;;;;24.33;61.64;101408.47;4984994;28;20039;-62
2023/10/13 14:43:51;;;;;;;10.57;8.40;;;;;;;24.35;61.53;101410.03;4984237;28;20054;-62
2023/10/13 14:46:22;;;;;;;8.82;7.95;;;;;;;24.34;61.21;101408.28;4986099;28;20061;-62
2023/10/13 14:48:53;;;;;;;9.82;8.13;;;;;;;24.34;61.82;101404.75;4988560;28;20046;-62
2023/10/13 14:51:25;;;;;;;;;;;;;;;24.33;61.65;101400.34;4997627;28;20050;-62
2023/10/13 14:53:56;;;;;;;8.65;7.72;;;;;;;24.34;61.38;101399.34;4988694;28;19926;-62
2023/10/13 14:56:25;;;;;;;9.48;8.57;;;;;;;24.34;61.24;101402.03;4986578;28;20050;-62
2023/10/13 14:58:53;;;;;;;12.20;8.68;;;;;;;24.34;61.70;101397.47;4985240;28;20045;-61
2023/10/13 15:01:26;;;;;;;9.77;8.32;;;;;;;24.33;61.15;101398.47;4982565;28;20066;-62